Time;durP1;ratioP1;P1;durP2;ratioP2;P2;SDS_P1;SDS_P2;PMS_P1;PMS_P2;Temp;Humidity;BMP_temperature;BMP_pressure;BME280_temperature;BME280_humidity;BME280_pressure;Samples;Min_cycle;Max_cycle;Signal;HPM_P1;HPM_P2
2023/01/11 00:02:04;;;;;;;9.85;1.73;;;;;;;2.47;95.74;94042.88;5100817;28;20202;-80
2023/01/11 00:04:31;;;;;;;4.72;0.77;;;;;;;2.50;95.82;94036.94;5106386;28;20739;-80
2023/01/11 00:06:59;;;;;;;2.05;1.17;;;;;;;2.36;96.22;94040.66;5104378;28;20201;-79
2023/01/11 00:09:26;;;;;;;0.20;0.20;;;;;;;2.19;96.99;94035.81;5093569;28;20225;-79
2023/01/11 00:11:53;;;;;;;0.82;0.82;;;;;;;2.16;98.05;94057.00;5104345;28;20700;-80
2023/01/11 00:14:21;;;;;;;0.40;0.40;;;;;;;2.31;97.61;94054.09;5112661;28;20205;-80
2023/01/11 00:16:47;;;;;;;0.38;0.38;;;;;;;2.17;98.19;94053.25;5100756;28;20267;-79
2023/01/11 00:19:14;;;;;;;0.20;0.20;;;;;;;2.14;98.30;94049.28;5112355;28;20198;-80
2023/01/11 00:21:41;;;;;;;1.38;0.85;;;;;;;2.03;99.13;94059.31;5118721;27;21095;-81
2023/01/11 00:24:09;;;;;;;4.60;1.75;;;;;;;1.90;99.87;94052.00;5117796;27;20216;-80
2023/01/11 00:26:36;;;;;;;1.13;1.05;;;;;;;1.85;99.99;94061.94;5119481;27;20664;-80
2023/01/11 00:29:02;;;;;;;0.60;0.60;;;;;;;1.90;100.00;94061.91;5132222;27;20201;-80
2023/01/11 00:31:29;;;;;;;1.40;0.75;;;;;;;1.93;100.00;94070.09;5119820;27;20250;-79
2023/01/11 00:33:56;;;;;;;0.57;0.57;;;;;;;1.93;100.00;94080.00;5132498;27;20201;-80
2023/01/11 00:36:23;;;;;;;0.85;0.77;;;;;;;1.89;100.00;94074.44;5132739;27;20278;-79
2023/01/11 00:38:54;;;;;;;0.60;0.50;;;;;;;1.81;100.00;94072.41;5132612;27;20566;-80
2023/01/11 00:49:38;;;;;;;0.40;0.40;;;;;;;1.78;100.00;94071.09;5124659;27;20270;-79
2023/01/11 00:52:07;;;;;;;0.45;0.43;;;;;;;1.84;100.00;94074.50;5121997;27;20216;-79
2023/01/11 00:54:34;;;;;;;0.77;0.77;;;;;;;1.87;100.00;94079.28;5131732;27;20572;-80
2023/01/11 00:57:05;;;;;;;2.25;1.10;;;;;;;2.01;100.00;94079.38;5128333;27;20217;-80
2023/01/11 00:59:32;;;;;;;4.05;1.48;;;;;;;1.83;100.00;94080.91;5118793;27;20197;-80
2023/01/11 01:01:58;;;;;;;4.03;1.92;;;;;;;1.72;100.00;94079.47;5121120;27;20204;-80
2023/01/11 01:04:25;;;;;;;0.57;0.57;;;;;;;1.81;100.00;94080.41;5124776;27;20768;-80
2023/01/11 01:06:52;;;;;;;0.88;0.75;;;;;;;1.78;100.00;94079.09;5123092;27;20217;-79
2023/01/11 01:09:19;;;;;;;0.55;0.55;;;;;;;1.79;100.00;94079.91;5114347;27;20296;-79
2023/01/11 01:11:46;;;;;;;1.23;0.93;;;;;;;1.82;100.00;94081.19;5123500;27;20228;-79
2023/01/11 01:14:27;;;;;;;8.13;1.30;;;;;;;1.94;100.00;94085.03;5117897;27;20938;-79
2023/01/11 01:16:55;;;;;;;0.90;0.75;;;;;;;1.89;100.00;94079.78;5117804;27;20676;-80
2023/01/11 01:19:23;;;;;;;1.00;0.68;;;;;;;1.90;100.00;94081.38;5124503;27;20759;-79
2023/01/11 01:21:50;;;;;;;2.28;0.55;;;;;;;1.79;100.00;94085.22;5124141;27;20229;-80
2023/01/11 01:24:17;;;;;;;0.43;0.43;;;;;;;1.72;100.00;94090.13;5119167;27;20196;-80
2023/01/11 01:26:43;;;;;;;1.10;0.77;;;;;;;1.65;100.00;94090.47;5131571;27;20201;-80
2023/01/11 01:29:10;;;;;;;0.80;0.77;;;;;;;1.58;100.00;94089.22;5124177;27;20201;-80
2023/01/11 01:31:39;;;;;;;1.95;1.17;;;;;;;1.74;100.00;94093.31;5125176;27;20307;-79
2023/01/11 01:34:07;;;;;;;1.95;1.23;;;;;;;1.75;100.00;94089.56;5119748;27;20250;-81
2023/01/11 01:36:34;;;;;;;9.15;1.60;;;;;;;1.70;100.00;94089.63;5118028;27;20239;-81
2023/01/11 01:39:01;;;;;;;3.17;1.65;;;;;;;1.56;100.00;94091.38;5132342;27;20206;-81
2023/01/11 01:41:28;;;;;;;2.45;1.20;;;;;;;1.56;100.00;94102.88;5115966;27;20669;-81
2023/01/11 01:43:59;;;;;;;2.28;1.25;;;;;;;1.48;100.00;94102.69;5123457;27;20686;-81
2023/01/11 01:46:28;;;;;;;3.22;1.95;;;;;;;1.43;100.00;94096.34;5138034;27;20266;-79
2023/01/11 01:49:00;;;;;;;3.08;1.67;;;;;;;1.40;100.00;94104.91;5122552;28;20664;-81
2023/01/11 01:51:32;;;;;;;2.30;1.02;;;;;;;1.43;100.00;94104.34;5132637;27;20602;-81
2023/01/11 01:54:04;;;;;;;0.52;0.52;;;;;;;1.39;100.00;94103.31;5123844;27;20189;-81
2023/01/11 01:56:36;;;;;;;1.42;1.00;;;;;;;1.45;100.00;94106.72;5116636;27;20216;-81
2023/01/11 01:59:07;;;;;;;2.00;1.10;;;;;;;1.18;100.00;94098.47;5124502;27;20235;-81
2023/01/11 02:01:49;;;;;;;1.15;1.05;;;;;;;1.25;100.00;94102.38;5118509;27;20231;-81
2023/01/11 02:04:23;;;;;;;0.85;0.85;;;;;;;1.23;100.00;94099.19;5131443;27;20221;-82
2023/01/11 02:06:50;;;;;;;6.97;4.22;;;;;;;1.27;100.00;94107.44;5130816;27;20208;-81
2023/01/11 02:09:26;;;;;;;8.68;5.07;;;;;;;1.27;100.00;94110.91;5112955;27;20680;-81
2023/01/11 02:11:57;;;;;;;8.50;5.15;;;;;;;1.34;100.00;94111.38;5123536;27;20289;-81
2023/01/11 02:14:25;;;;;;;8.82;5.00;;;;;;;1.40;100.00;94120.91;5131198;27;20632;-82
2023/01/11 02:16:52;;;;;;;11.57;2.30;;;;;;;1.42;100.00;94129.44;5131113;27;20584;-81
2023/01/11 02:19:46;;;;;;;4.05;1.40;;;;;;;1.34;100.00;94127.38;5110977;28;20201;-80
2023/01/11 02:23:07;;;;;;;6.05;3.38;;;;;;;1.28;100.00;94127.72;5128609;27;20201;-81
2023/01/11 02:26:11;;;;;;;8.65;2.92;;;;;;;1.25;100.00;94134.38;5116274;27;20208;-80
2023/01/11 02:28:46;;;;;;;1.35;1.25;;;;;;;1.40;100.00;94147.59;5127257;27;20197;-80
2023/01/11 02:31:19;;;;;;;0.73;0.73;;;;;;;1.48;100.00;94154.19;5121939;27;20201;-81
2023/01/11 02:33:54;;;;;;;1.52;1.00;;;;;;;1.48;100.00;94161.41;5116930;27;20197;-81
2023/01/11 02:36:30;;;;;;;1.05;0.98;;;;;;;1.53;100.00;94161.34;5115303;27;20304;-80
2023/01/11 02:39:05;;;;;;;1.70;1.10;;;;;;;1.55;100.00;94164.53;5130466;27;20667;-82
2023/01/11 02:47:17;;;;;;;1.73;1.15;;;;;;;2.89;100.00;94166.84;5115595;27;20276;-78
2023/01/11 02:49:52;;;;;;;1.20;0.90;;;;;;;2.45;100.00;94167.22;5126006;27;20200;-83
2023/01/11 02:52:26;;;;;;;4.75;2.08;;;;;;;2.04;100.00;94181.09;5130126;27;20203;-82
2023/01/11 02:54:57;;;;;;;3.83;1.35;;;;;;;2.00;100.00;94177.38;5115881;27;20245;-79
2023/01/11 02:57:27;;;;;;;1.33;1.00;;;;;;;1.90;100.00;94179.38;5129324;28;20217;-85
2023/01/11 02:59:57;;;;;;;1.05;0.98;;;;;;;1.85;100.00;94180.22;5117092;28;20272;-82
2023/01/11 03:02:24;;;;;;;0.57;0.57;;;;;;;1.85;100.00;94184.78;5116226;28;20289;-82
2023/01/11 03:04:51;;;;;;;0.68;0.63;;;;;;;2.05;100.00;94179.97;5121331;27;20712;-86
2023/01/11 03:07:45;;;;;;;2.05;0.80;;;;;;;2.19;100.00;94179.31;5124457;28;20201;-80
2023/01/11 03:10:23;;;;;;;0.68;0.40;;;;;;;2.31;100.00;94177.03;5118000;28;20185;-80
2023/01/11 03:13:02;;;;;;;1.90;0.98;;;;;;;2.40;100.00;94176.09;5110515;28;20651;-85
2023/01/11 03:16:01;;;;;;;1.65;1.35;;;;;;;2.52;100.00;94175.66;5121834;28;20242;-85
2023/01/11 03:18:38;;;;;;;2.20;0.88;;;;;;;2.55;100.00;94175.09;5116881;28;20285;-86
2023/01/11 03:21:21;;;;;;;1.33;0.95;;;;;;;2.70;100.00;94174.88;5121534;28;20358;-85
2023/01/11 03:23:59;;;;;;;0.60;0.60;;;;;;;2.73;100.00;94174.28;5113538;28;20241;-86
2023/01/11 03:26:34;;;;;;;2.63;1.08;;;;;;;2.73;100.00;94168.94;5129529;28;20185;-83
2023/01/11 03:29:10;;;;;;;3.47;1.02;;;;;;;2.78;100.00;94160.84;5108808;28;20637;-79
2023/01/11 03:31:45;;;;;;;1.98;1.13;;;;;;;2.72;100.00;94164.69;5124823;27;20224;-80
2023/01/11 03:34:18;;;;;;;3.75;1.55;;;;;;;2.85;99.84;94166.63;5119885;28;20189;-79
2023/01/11 03:36:52;;;;;;;3.08;1.15;;;;;;;2.79;99.27;94161.63;5126091;28;20748;-79
2023/01/11 03:39:25;;;;;;;2.72;0.95;;;;;;;2.91;99.14;94158.53;5117774;28;20194;-80
2023/01/11 03:41:56;;;;;;;3.38;1.80;;;;;;;2.93;98.57;94167.06;5122584;28;20672;-79
2023/01/11 03:44:25;;;;;;;0.80;0.68;;;;;;;2.65;98.80;94177.63;5109410;28;20202;-82
2023/01/11 03:46:57;;;;;;;0.93;0.90;;;;;;;2.43;99.67;94174.72;5109449;28;20256;-81
2023/01/11 03:49:30;;;;;;;1.90;1.20;;;;;;;2.46;99.83;94176.81;5113990;27;20648;-81
2023/01/11 03:52:00;;;;;;;0.52;0.45;;;;;;;2.42;99.96;94183.81;5133364;27;20197;-79
2023/01/11 03:54:30;;;;;;;0.60;0.60;;;;;;;2.38;99.93;94188.13;5119877;27;20204;-82
2023/01/11 03:57:03;;;;;;;2.38;1.40;;;;;;;2.42;99.73;94189.16;5127346;27;20269;-82
2023/01/11 03:59:30;;;;;;;3.80;1.02;;;;;;;2.26;100.00;94179.75;5114612;27;20247;-85
2023/01/11 04:01:59;;;;;;;1.45;0.90;;;;;;;2.27;100.00;94189.34;5124916;27;20197;-86
2023/01/11 04:04:25;;;;;;;1.73;1.25;;;;;;;2.53;100.00;94187.16;5119400;27;20217;-84
2023/01/11 04:06:52;;;;;;;2.03;1.60;;;;;;;2.68;100.00;94193.09;5121601;27;20265;-85
2023/01/11 04:09:20;;;;;;;3.47;2.03;;;;;;;2.79;99.63;94181.16;5127146;27;20209;-85
2023/01/11 04:11:47;;;;;;;2.10;1.42;;;;;;;2.76;99.41;94187.06;5124840;27;20197;-82
2023/01/11 04:14:14;;;;;;;2.03;1.42;;;;;;;2.70;98.99;94193.59;5118954;27;20580;-83
2023/01/11 04:16:40;;;;;;;2.33;1.67;;;;;;;2.66;98.95;94199.81;5119804;27;20240;-84
2023/01/11 04:19:08;;;;;;;4.65;1.48;;;;;;;2.75;98.73;94208.75;5118595;27;20204;-84
2023/01/11 04:21:35;;;;;;;2.13;1.25;;;;;;;2.79;98.39;94213.25;5122877;27;20295;-87
2023/01/11 04:24:02;;;;;;;2.28;1.25;;;;;;;2.88;98.24;94212.59;5132571;27;20276;-85
2023/01/11 04:26:29;;;;;;;2.05;1.48;;;;;;;2.94;98.92;94211.44;5131768;27;20807;-86
2023/01/11 04:28:55;;;;;;;2.22;1.55;;;;;;;2.97;98.71;94206.31;5118691;27;20209;-81
2023/01/11 04:31:22;;;;;;;3.05;1.88;;;;;;;2.98;98.13;94207.91;5118248;27;20707;-79
2023/01/11 04:33:49;;;;;;;3.15;2.38;;;;;;;3.04;98.36;94222.00;5119178;27;20201;-80
2023/01/11 04:36:17;;;;;;;4.07;1.88;;;;;;;3.06;98.75;94225.16;5118507;27;20899;-80
2023/01/11 04:38:44;;;;;;;2.85;2.00;;;;;;;3.14;97.98;94221.84;5112314;28;20546;-79
2023/01/11 04:43:56;;;;;;;0.88;0.85;;;;;;;3.12;98.06;94224.03;5111875;28;20197;-78
2023/01/11 04:46:22;;;;;;;4.88;1.95;;;;;;;3.17;97.79;94221.25;5128732;27;20208;-78
2023/01/11 04:48:49;;;;;;;3.55;1.90;;;;;;;3.19;97.01;94229.78;5122175;27;20205;-79
2023/01/11 04:51:18;;;;;;;3.88;2.03;;;;;;;3.18;96.86;94228.19;5128367;27;20199;-79
2023/01/11 04:53:46;;;;;;;2.03;1.38;;;;;;;2.97;96.48;94237.63;5121886;27;20832;-80
2023/01/11 04:56:13;;;;;;;3.83;1.63;;;;;;;2.70;96.90;94233.72;5120971;27;20209;-79
2023/01/11 04:58:40;;;;;;;2.35;1.42;;;;;;;2.73;96.83;94243.81;5128276;27;20731;-81
2023/01/11 05:01:10;;;;;;;1.42;0.93;;;;;;;2.73;96.91;94243.81;5117239;27;20257;-77
2023/01/11 05:03:37;;;;;;;0.50;0.50;;;;;;;2.55;97.15;94249.94;5131577;27;20711;-77
2023/01/11 05:06:05;;;;;;;1.60;0.95;;;;;;;2.62;97.26;94247.69;5127571;27;20197;-78
2023/01/11 05:08:33;;;;;;;0.90;0.90;;;;;;;2.66;97.37;94248.72;5123614;27;20642;-77
2023/01/11 05:11:02;;;;;;;1.30;1.10;;;;;;;2.69;97.26;94253.50;5118164;27;20201;-78
2023/01/11 05:13:41;;;;;;;1.52;1.15;;;;;;;2.71;96.92;94253.22;5119911;27;20215;-75
2023/01/11 05:16:09;;;;;;;1.08;0.98;;;;;;;2.61;96.74;94259.47;5124811;27;20197;-78
2023/01/11 05:18:36;;;;;;;0.43;0.43;;;;;;;2.53;97.38;94260.13;5130783;27;20200;-80
2023/01/11 05:21:04;;;;;;;1.17;0.95;;;;;;;2.49;97.54;94267.09;5131422;27;20277;-78
2023/01/11 05:23:37;;;;;;;2.75;1.27;;;;;;;2.62;98.04;94269.09;5130435;27;20209;-81
2023/01/11 05:26:16;;;;;;;2.15;0.98;;;;;;;2.62;97.75;94269.09;5119890;27;20249;-78
2023/01/11 05:28:44;;;;;;;3.13;1.17;;;;;;;2.62;97.75;94266.41;5117937;27;20218;-78
2023/01/11 05:31:10;;;;;;;0.80;0.80;;;;;;;2.59;97.35;94259.00;5120874;27;20565;-78
2023/01/11 05:33:37;;;;;;;0.80;0.80;;;;;;;2.55;96.81;94271.31;5116356;27;20208;-77
2023/01/11 05:36:06;;;;;;;1.75;1.15;;;;;;;2.60;96.86;94270.47;5121709;27;20193;-77
2023/01/11 05:38:35;;;;;;;0.65;0.65;;;;;;;2.54;96.89;94269.72;5113602;27;20286;-77
2023/01/11 05:41:03;;;;;;;2.10;0.73;;;;;;;2.44;96.87;94272.53;5118180;27;20245;-75
2023/01/11 05:43:32;;;;;;;0.43;0.43;;;;;;;2.42;97.53;94280.03;5122599;27;20261;-78
2023/01/11 05:46:00;;;;;;;0.57;0.57;;;;;;;2.38;97.43;94284.34;5120917;27;20192;-78
2023/01/11 05:48:28;;;;;;;0.50;0.50;;;;;;;2.36;97.27;94281.16;5111510;28;20205;-78
2023/01/11 05:50:56;;;;;;;0.40;0.40;;;;;;;2.31;97.49;94281.25;5124809;27;20205;-79
2023/01/11 05:53:23;;;;;;;4.28;0.90;;;;;;;2.40;96.83;94298.22;5130477;27;20258;-79
2023/01/11 05:55:58;;;;;;;0.52;0.52;;;;;;;2.38;96.59;94287.03;5130397;27;20234;-79
2023/01/11 05:58:26;;;;;;;0.65;0.65;;;;;;;2.42;96.61;94296.06;5125199;27;20223;-79
2023/01/11 06:00:55;;;;;;;0.50;0.50;;;;;;;2.41;96.64;94283.78;5128250;27;20212;-79
2023/01/11 06:03:23;;;;;;;0.43;0.40;;;;;;;2.37;96.41;94296.13;5112344;27;20218;-80
2023/01/11 06:05:51;;;;;;;0.30;0.30;;;;;;;2.32;95.75;94285.50;5117076;27;20609;-80
2023/01/11 06:08:18;;;;;;;0.90;0.75;;;;;;;2.23;95.95;94284.50;5121061;27;20197;-79
2023/01/11 06:10:51;;;;;;;0.57;0.57;;;;;;;2.29;95.83;94299.44;5123244;27;20745;-80
2023/01/11 06:13:26;;;;;;;0.60;0.60;;;;;;;2.28;96.12;94300.50;5121840;27;20196;-79
2023/01/11 06:15:54;;;;;;;0.63;0.60;;;;;;;2.33;96.36;94316.47;5131667;27;20253;-79
2023/01/11 06:18:21;;;;;;;1.35;0.63;;;;;;;2.35;95.86;94316.97;5117811;27;20229;-78
2023/01/11 06:20:51;;;;;;;1.25;1.10;;;;;;;2.36;96.00;94323.91;5108713;28;20286;-78
2023/01/11 06:23:18;;;;;;;4.40;2.58;;;;;;;2.36;96.19;94329.25;5108971;28;20664;-77
2023/01/11 06:25:45;;;;;;;3.25;2.13;;;;;;;2.39;96.49;94334.84;5129030;27;20425;-78
2023/01/11 06:28:13;;;;;;;2.50;1.35;;;;;;;2.48;96.62;94332.34;5116571;27;20206;-77
2023/01/11 06:30:41;;;;;;;4.60;2.05;;;;;;;2.62;95.70;94335.94;5122676;27;20636;-76
2023/01/11 06:33:08;;;;;;;1.63;1.27;;;;;;;2.74;94.67;94347.00;5108946;28;20205;-78
2023/01/11 06:35:38;;;;;;;1.02;0.68;;;;;;;2.93;94.05;94348.94;5115359;27;20197;-80
2023/01/11 06:38:05;;;;;;;0.70;0.52;;;;;;;2.95;92.64;94336.09;5115862;27;20272;-78
2023/01/11 06:40:32;;;;;;;0.52;0.52;;;;;;;3.08;92.20;94340.72;5122608;27;20254;-77
2023/01/11 06:42:58;;;;;;;0.80;0.80;;;;;;;3.16;91.57;94337.41;5123270;27;20603;-77
2023/01/11 06:45:25;;;;;;;1.75;0.95;;;;;;;3.31;91.60;94339.88;5117019;28;20639;-78
2023/01/11 06:47:53;;;;;;;5.85;1.20;;;;;;;3.54;91.28;94340.91;5126039;27;20197;-78
2023/01/11 06:50:20;;;;;;;0.70;0.70;;;;;;;3.78;90.12;94338.13;5130443;27;20213;-82
2023/01/11 06:52:53;;;;;;;0.85;0.85;;;;;;;3.97;89.03;94357.63;5124811;27;20237;-79
2023/01/11 06:55:20;;;;;;;1.92;0.88;;;;;;;3.77;89.04;94344.56;5120430;27;20189;-81
2023/01/11 06:57:47;;;;;;;0.88;0.88;;;;;;;3.69;88.41;94361.31;5125470;27;20274;-80
2023/01/11 07:00:14;;;;;;;1.95;1.65;;;;;;;4.00;88.38;94357.03;5120604;28;20198;-78
2023/01/11 07:02:41;;;;;;;2.40;0.98;;;;;;;4.10;87.69;94351.50;5123285;27;20217;-78
2023/01/11 07:05:10;;;;;;;0.75;0.75;;;;;;;4.18;87.37;94356.22;5119405;28;20205;-80
2023/01/11 07:07:38;;;;;;;4.75;0.90;;;;;;;4.30;86.08;94369.16;5124248;28;20197;-78
2023/01/11 07:10:07;;;;;;;0.68;0.68;;;;;;;4.26;86.28;94371.63;5117990;28;20592;-82
2023/01/11 07:12:34;;;;;;;0.70;0.63;;;;;;;4.13;85.56;94377.75;5114172;28;20201;-80
2023/01/11 07:15:01;;;;;;;0.50;0.50;;;;;;;3.95;85.04;94389.31;5118726;28;20209;-79
2023/01/11 07:17:28;;;;;;;1.25;0.77;;;;;;;4.16;85.43;94381.72;5123296;28;20315;-80
2023/01/11 07:19:55;;;;;;;0.68;0.68;;;;;;;4.25;84.91;94386.09;5121115;28;20293;-79
2023/01/11 07:22:23;;;;;;;0.70;0.70;;;;;;;4.43;84.65;94381.00;5118066;27;20222;-82
2023/01/11 07:24:50;;;;;;;0.70;0.70;;;;;;;4.53;83.87;94386.19;5122284;27;20614;-79
2023/01/11 07:27:18;;;;;;;1.23;0.70;;;;;;;4.75;83.81;94389.00;5128269;27;20210;-80
2023/01/11 07:29:45;;;;;;;0.98;0.80;;;;;;;5.05;82.92;94381.47;5126454;27;20248;-79
2023/01/11 07:32:12;;;;;;;0.35;0.32;;;;;;;5.09;81.91;94387.81;5121234;27;20201;-80
2023/01/11 07:34:39;;;;;;;0.65;0.63;;;;;;;5.22;81.44;94387.81;5122749;27;20240;-80
2023/01/11 07:37:08;;;;;;;1.52;0.65;;;;;;;5.39;81.12;94386.41;5127209;27;20254;-76
2023/01/11 07:39:36;;;;;;;1.88;0.95;;;;;;;5.30;80.73;94400.53;5114090;28;20874;-79
2023/01/11 07:44:50;;;;;;;1.40;1.02;;;;;;;5.14;81.75;94398.47;5106786;27;20208;-79
2023/01/11 07:47:17;;;;;;;0.68;0.68;;;;;;;5.13;80.98;94394.97;5127390;27;20693;-78
2023/01/11 07:49:43;;;;;;;0.20;0.20;;;;;;;4.92;79.99;94394.56;5123212;27;20194;-79
2023/01/11 07:52:10;;;;;;;11.02;0.65;;;;;;;4.60;81.69;94402.69;5125180;27;20193;-83
2023/01/11 07:54:38;;;;;;;0.90;0.75;;;;;;;4.87;81.75;94397.38;5119606;27;20205;-85
2023/01/11 07:57:05;;;;;;;0.70;0.70;;;;;;;4.92;80.73;94410.66;5122586;27;20205;-82
2023/01/11 07:59:32;;;;;;;0.52;0.52;;;;;;;4.94;80.59;94419.22;5126586;27;20228;-82
2023/01/11 08:01:58;;;;;;;1.85;1.30;;;;;;;4.94;80.66;94421.91;5123971;27;20225;-81
2023/01/11 08:04:26;;;;;;;1.50;1.00;;;;;;;5.18;80.41;94420.94;5117570;27;20277;-78
2023/01/11 08:06:52;;;;;;;0.50;0.50;;;;;;;4.79;81.10;94430.22;5128871;27;20567;-77
2023/01/11 08:09:19;;;;;;;1.20;0.82;;;;;;;4.88;81.59;94431.16;5120270;27;20261;-79
2023/01/11 08:14:41;;;;;;;0.38;0.32;;;;;;;4.53;80.62;94451.34;5101082;27;20211;-80
2023/01/11 08:17:09;;;;;;;0.80;0.80;;;;;;;4.82;80.34;94453.78;5118932;27;20588;-79
2023/01/11 08:19:35;;;;;;;1.45;0.47;;;;;;;4.67;80.51;94455.94;5133193;27;20253;-79
2023/01/11 08:22:02;;;;;;;0.57;0.43;;;;;;;4.44;80.83;94463.84;5119926;27;20645;-79
2023/01/11 08:24:29;;;;;;;0.70;0.70;;;;;;;4.19;81.81;94462.34;5133655;27;20205;-82
2023/01/11 08:26:57;;;;;;;0.30;0.30;;;;;;;4.03;81.43;94476.25;5132740;27;20613;-79
2023/01/11 08:29:25;;;;;;;0.63;0.55;;;;;;;4.14;82.14;94486.53;5132979;27;20273;-79
2023/01/11 08:31:52;;;;;;;0.40;0.40;;;;;;;4.29;82.22;94482.84;5118854;27;20200;-81
2023/01/11 08:34:19;;;;;;;0.70;0.68;;;;;;;4.55;81.23;94483.22;5130838;27;20205;-80
2023/01/11 08:36:46;;;;;;;0.50;0.50;;;;;;;4.26;81.77;94489.56;5118359;27;20200;-79
2023/01/11 08:39:13;;;;;;;0.52;0.52;;;;;;;4.52;82.38;94486.50;5132274;27;20228;-81
2023/01/11 08:41:39;;;;;;;1.70;0.90;;;;;;;4.70;81.69;94488.34;5118926;27;20269;-80
2023/01/11 08:44:09;;;;;;;0.80;0.80;;;;;;;5.11;80.00;94487.63;5122181;27;20243;-81
2023/01/11 08:46:36;;;;;;;0.40;0.40;;;;;;;5.02;80.25;94489.44;5127086;27;20661;-79
2023/01/11 08:49:09;;;;;;;1.58;1.13;;;;;;;4.75;79.99;94488.28;5123916;27;20224;-79
2023/01/11 08:51:36;;;;;;;0.70;0.70;;;;;;;4.65;79.09;94504.53;5132819;27;20200;-81
2023/01/11 08:54:03;;;;;;;1.10;0.80;;;;;;;4.82;79.76;94496.72;5132943;27;20201;-82
2023/01/11 08:56:32;;;;;;;1.20;0.80;;;;;;;4.92;79.68;94499.22;5127487;27;20202;-81
2023/01/11 08:59:01;;;;;;;1.38;0.60;;;;;;;4.51;79.04;94506.38;5119402;27;20286;-77
2023/01/11 09:01:29;;;;;;;0.77;0.60;;;;;;;4.41;80.10;94506.53;5124364;27;20637;-80
2023/01/11 09:03:56;;;;;;;0.40;0.40;;;;;;;4.38;81.08;94512.47;5111673;28;20206;-81
2023/01/11 09:06:22;;;;;;;1.60;0.90;;;;;;;4.40;80.35;94510.28;5119664;27;20716;-79
2023/01/11 09:08:49;;;;;;;0.90;0.90;;;;;;;4.69;80.55;94512.78;5118906;27;20197;-81
2023/01/11 09:14:03;;;;;;;1.17;0.90;;;;;;;4.88;79.00;94508.97;5129274;27;20192;-80
2023/01/11 09:16:31;;;;;;;0.47;0.47;;;;;;;5.01;79.16;94504.72;5132121;27;20197;-79
2023/01/11 09:18:58;;;;;;;0.40;0.40;;;;;;;4.68;78.68;94512.00;5118699;27;20260;-78
2023/01/11 09:21:24;;;;;;;0.60;0.60;;;;;;;4.82;79.24;94499.41;5120613;27;20581;-79
2023/01/11 09:23:51;;;;;;;0.40;0.40;;;;;;;4.99;78.08;94507.72;5129606;27;20223;-79
2023/01/11 09:26:18;;;;;;;1.60;0.65;;;;;;;5.05;77.83;94510.31;5121038;27;20262;-79
2023/01/11 09:28:45;;;;;;;0.70;0.47;;;;;;;4.95;77.77;94509.38;5130153;27;20201;-78
2023/01/11 09:31:11;;;;;;;0.47;0.47;;;;;;;4.81;78.18;94518.50;5131731;27;20217;-77
2023/01/11 09:33:39;;;;;;;0.82;0.68;;;;;;;4.88;79.16;94517.03;5118074;27;20724;-79
2023/01/11 09:36:07;;;;;;;0.40;0.38;;;;;;;5.16;78.00;94506.34;5119964;27;20266;-80
2023/01/11 09:38:36;;;;;;;0.30;0.30;;;;;;;4.62;78.97;94518.53;5125528;27;20225;-78
2023/01/11 09:41:20;;;;;;;3.40;0.93;;;;;;;4.65;79.76;94517.94;5124175;27;20196;-82
2023/01/11 09:43:54;;;;;;;1.48;1.05;;;;;;;5.15;78.29;94508.25;5119768;27;20228;-83
2023/01/11 09:46:20;;;;;;;0.98;0.73;;;;;;;5.34;78.37;94502.78;5129827;27;20238;-82
2023/01/11 09:48:53;;;;;;;0.68;0.68;;;;;;;5.81;78.31;94506.16;5119279;27;20264;-82
2023/01/11 09:51:23;;;;;;;1.27;0.70;;;;;;;5.96;77.21;94503.19;5130424;27;20236;-81
2023/01/11 09:53:52;;;;;;;1.08;0.80;;;;;;;6.01;76.91;94500.41;5131218;27;20192;-80
2023/01/11 09:56:26;;;;;;;1.02;0.68;;;;;;;6.23;76.24;94497.75;5118214;27;20200;-80
2023/01/11 09:59:06;;;;;;;2.17;0.68;;;;;;;5.37;76.29;94512.94;5124238;27;20224;-79
2023/01/11 10:01:37;;;;;;;1.10;0.90;;;;;;;5.07;78.57;94513.47;5118396;27;20307;-79
2023/01/11 10:04:36;;;;;;;1.40;0.90;;;;;;;5.15;77.99;94518.19;5115445;27;20193;-79
2023/01/11 10:07:36;;;;;;;0.30;0.30;;;;;;;4.99;75.12;94514.97;5124949;27;20201;-76
2023/01/11 10:10:21;;;;;;;0.55;0.50;;;;;;;4.98;76.94;94516.84;5111067;27;20198;-82
2023/01/11 10:13:03;;;;;;;1.13;0.80;;;;;;;5.22;76.12;94515.88;5124331;27;20300;-80
2023/01/11 10:15:37;;;;;;;1.10;0.73;;;;;;;5.27;76.44;94513.13;5124817;27;20201;-78
2023/01/11 10:18:24;;;;;;;0.50;0.40;;;;;;;5.41;74.59;94516.63;5122052;27;20235;-80
2023/01/11 10:21:05;;;;;;;2.05;0.50;;;;;;;5.06;76.07;94522.66;5125482;27;20312;-86
2023/01/11 10:23:40;;;;;;;0.82;0.73;;;;;;;4.95;76.81;94532.75;5125590;27;20654;-83
2023/01/11 10:26:23;;;;;;;0.28;0.28;;;;;;;4.90;76.96;94519.44;5133127;27;20200;-77
2023/01/11 10:29:06;;;;;;;0.57;0.55;;;;;;;4.92;76.59;94520.69;5116393;27;20760;-78
2023/01/11 10:31:47;;;;;;;0.77;0.55;;;;;;;4.98;75.63;94511.47;5124133;27;20627;-84
2023/01/11 10:34:37;;;;;;;1.05;0.65;;;;;;;5.32;76.10;94502.31;5118832;27;20228;-80
2023/01/11 10:37:29;;;;;;;0.98;0.60;;;;;;;5.26;77.03;94514.22;5116951;27;20598;-78
2023/01/11 10:40:18;;;;;;;1.48;1.02;;;;;;;5.37;75.73;94510.25;5110446;28;20560;-81
2023/01/11 10:42:51;;;;;;;1.13;0.88;;;;;;;5.56;75.24;94500.22;5110137;28;20190;-80
2023/01/11 10:45:22;;;;;;;0.65;0.65;;;;;;;5.88;73.26;94495.78;5124296;27;20204;-77
2023/01/11 10:47:56;;;;;;;1.63;1.20;;;;;;;5.96;73.68;94500.50;5124552;27;20208;-77
2023/01/11 10:50:27;;;;;;;1.33;0.98;;;;;;;5.56;73.62;94500.22;5130811;27;20199;-80
2023/01/11 10:53:02;;;;;;;1.30;0.77;;;;;;;5.35;74.23;94505.16;5130615;27;20193;-78
2023/01/11 10:55:42;;;;;;;2.05;0.73;;;;;;;5.52;73.61;94493.84;5119237;27;20258;-79
2023/01/11 10:58:17;;;;;;;0.45;0.45;;;;;;;5.47;72.42;94495.81;5120248;27;20228;-77
2023/01/11 11:00:55;;;;;;;1.55;1.30;;;;;;;5.16;73.68;94492.94;5125265;27;20553;-80
2023/01/11 11:03:43;;;;;;;0.32;0.32;;;;;;;5.03;75.13;94501.75;5109890;28;20217;-78
2023/01/11 11:06:16;;;;;;;0.63;0.63;;;;;;;5.21;75.49;94492.81;5114624;28;20199;-79
2023/01/11 11:08:53;;;;;;;1.20;0.95;;;;;;;5.27;74.50;94497.00;5116113;28;20239;-81
2023/01/11 11:11:27;;;;;;;2.80;1.15;;;;;;;5.56;74.10;94484.09;5120430;28;20203;-81
2023/01/11 11:14:03;;;;;;;0.40;0.40;;;;;;;5.38;72.19;94498.41;5118477;28;20204;-77
2023/01/11 11:16:46;;;;;;;6.47;1.02;;;;;;;5.58;72.54;94487.28;5120666;28;20412;-80
2023/01/11 11:19:21;;;;;;;0.85;0.60;;;;;;;5.50;72.10;94496.03;5124455;28;20213;-80
2023/01/11 11:21:54;;;;;;;1.48;0.80;;;;;;;5.29;70.73;94490.25;5110404;28;20316;-79
2023/01/11 11:24:31;;;;;;;0.85;0.65;;;;;;;5.23;71.27;94479.91;5123624;28;20201;-75
2023/01/11 11:27:02;;;;;;;0.88;0.40;;;;;;;5.11;73.53;94498.38;5119307;28;20261;-78
2023/01/11 11:29:29;;;;;;;0.70;0.68;;;;;;;5.04;74.80;94497.97;5122159;27;20217;-79
2023/01/11 11:31:58;;;;;;;1.85;1.10;;;;;;;5.39;74.05;94494.63;5122344;28;20200;-81
2023/01/11 11:34:26;;;;;;;2.50;1.15;;;;;;;5.41;70.50;94500.50;5128704;28;20605;-81
2023/01/11 11:36:54;;;;;;;1.00;0.90;;;;;;;5.40;72.90;94506.97;5120780;28;20208;-87
2023/01/11 11:39:26;;;;;;;1.33;0.80;;;;;;;5.47;72.69;94506.56;5123759;28;20320;-79
2023/01/11 11:41:55;;;;;;;0.60;0.60;;;;;;;5.67;71.92;94509.66;5111582;28;20186;-78
2023/01/11 11:44:24;;;;;;;1.38;0.70;;;;;;;5.84;71.90;94511.75;5122475;28;20292;-82
2023/01/11 11:46:58;;;;;;;1.05;0.80;;;;;;;5.61;72.63;94508.16;5119899;28;20208;-79
2023/01/11 11:49:25;;;;;;;1.30;1.02;;;;;;;5.69;72.69;94515.53;5129852;28;20261;-79
2023/01/11 11:51:53;;;;;;;1.02;0.90;;;;;;;5.91;71.95;94511.34;5121093;28;20205;-80
2023/01/11 11:54:25;;;;;;;0.60;0.60;;;;;;;5.63;70.88;94516.72;5122985;28;20197;-79
2023/01/11 11:56:53;;;;;;;3.55;2.15;;;;;;;5.95;72.33;94512.34;5113559;28;20274;-80
2023/01/11 11:59:23;;;;;;;1.13;1.02;;;;;;;6.11;69.93;94516.31;5127048;28;20280;-85
2023/01/11 12:01:58;;;;;;;3.38;1.38;;;;;;;6.12;70.46;94511.72;5128917;27;20228;-81
2023/01/11 12:04:33;;;;;;;1.48;1.02;;;;;;;6.05;71.53;94512.13;5115866;28;20193;-79
2023/01/11 12:07:13;;;;;;;3.65;0.90;;;;;;;6.18;69.89;94514.00;5118116;28;20256;-78
2023/01/11 12:09:45;;;;;;;1.10;1.00;;;;;;;6.30;70.34;94516.94;5119830;27;20288;-79
2023/01/11 12:12:17;;;;;;;1.48;1.35;;;;;;;6.31;69.92;94510.47;5125271;27;20300;-79
2023/01/11 12:15:05;;;;;;;2.30;1.30;;;;;;;5.95;71.77;94517.72;5122758;27;20275;-89
2023/01/11 12:17:32;;;;;;;1.20;1.10;;;;;;;5.74;72.17;94516.53;5120117;27;20262;-83
2023/01/11 12:19:59;;;;;;;0.80;0.80;;;;;;;5.70;72.89;94519.00;5120591;27;20238;-80
2023/01/11 12:22:28;;;;;;;1.70;1.00;;;;;;;5.46;73.47;94516.53;5122237;27;20248;-79